createdAt,value
2019-05-12T00:01:04.149Z,45.79
2019-05-12T00:02:09.741Z,46.03
2019-05-12T00:03:15.141Z,45.79
2019-05-12T00:04:20.023Z,45.58
2019-05-12T00:05:25.017Z,45.47
2019-05-12T00:06:30.171Z,46.01
2019-05-12T00:07:35.143Z,46.19
2019-05-12T00:08:40.150Z,46.41
2019-05-12T00:09:47.451Z,45.87
2019-05-12T00:10:52.819Z,46.10
2019-05-12T00:11:59.133Z,46.25
2019-05-12T00:13:04.569Z,46.32
2019-05-12T00:14:09.305Z,46.47
2019-05-12T00:15:14.638Z,46.36
2019-05-12T00:16:19.975Z,46.41
2019-05-12T00:17:28.311Z,46.42
2019-05-12T00:18:32.947Z,46.68
2019-05-12T00:19:38.470Z,46.60
2019-05-12T00:20:43.160Z,46.77
2019-05-12T00:21:48.490Z,46.69
2019-05-12T00:22:58.126Z,47.08
2019-05-12T00:24:13.698Z,47.03
2019-05-12T00:25:19.217Z,47.18
2019-05-12T00:26:24.410Z,47.01
2019-05-12T00:27:29.881Z,47.20
2019-05-12T00:28:34.496Z,46.99
2019-05-12T00:29:39.684Z,46.90
2019-05-12T00:30:48.749Z,46.93
2019-05-12T00:31:53.726Z,46.56
2019-05-12T00:32:59.200Z,46.85
2019-05-12T00:34:04.384Z,46.63
2019-05-12T00:35:09.521Z,46.30
2019-05-12T00:36:14.219Z,46.09
2019-05-12T00:37:19.399Z,46.43
2019-05-12T00:38:24.381Z,46.16
2019-05-12T00:39:29.542Z,46.21
2019-05-12T00:40:34.227Z,46.73
2019-05-12T00:41:39.421Z,46.79
2019-05-12T00:42:44.380Z,47.04
2019-05-12T00:43:49.249Z,47.35
2019-05-12T00:44:54.284Z,47.21
2019-05-12T00:45:59.459Z,47.30
2019-05-12T00:47:04.831Z,47.69
2019-05-12T00:48:09.898Z,47.60
2019-05-12T00:49:14.834Z,47.49
2019-05-12T00:50:20.032Z,47.15
2019-05-12T00:51:24.836Z,47.33
2019-05-12T00:52:29.519Z,47.41
2019-05-12T00:53:40.258Z,47.43
2019-05-12T00:54:41.992Z,47.70
2019-05-12T00:55:47.649Z,47.68
2019-05-12T00:56:53.128Z,48.09
2019-05-12T00:57:58.480Z,48.31
2019-05-12T00:59:04.579Z,47.99
2019-05-12T01:00:10.252Z,48.26
2019-05-12T01:01:15.173Z,48.22
2019-05-12T01:02:20.305Z,48.39
2019-05-12T01:03:27.975Z,47.94
2019-05-12T01:04:32.572Z,47.62
2019-05-12T01:05:38.317Z,47.87
2019-05-12T01:06:43.702Z,47.66
2019-05-12T01:07:51.273Z,47.62
2019-05-12T01:08:57.907Z,47.72
2019-05-12T01:10:05.031Z,48.37
2019-05-12T01:11:10.034Z,48.12
2019-05-12T01:12:15.285Z,48.02
2019-05-12T01:13:20.131Z,47.81
2019-05-12T01:14:25.076Z,48.28
2019-05-12T01:15:29.776Z,47.74
2019-05-12T01:16:35.271Z,48.09
2019-05-12T01:17:40.688Z,47.86
2019-05-12T01:18:47.980Z,47.51
2019-05-12T01:19:52.337Z,47.18
2019-05-12T01:20:58.380Z,47.08
2019-05-12T01:22:03.478Z,46.73
2019-05-12T01:23:09.213Z,47.00
2019-05-12T01:24:14.215Z,46.55
2019-05-12T01:25:19.106Z,46.68
2019-05-12T01:26:24.090Z,46.26
2019-05-12T01:27:29.253Z,46.42
2019-05-12T01:28:34.141Z,45.84
2019-05-12T01:29:38.764Z,46.02
2019-05-12T01:30:44.022Z,46.01
2019-05-12T01:32:04.281Z,46.11
2019-05-12T01:33:09.213Z,46.12
2019-05-12T01:34:14.481Z,45.98
2019-05-12T01:35:19.427Z,45.98
2019-05-12T01:36:24.338Z,45.67
2019-05-12T01:37:29.355Z,45.33
2019-05-12T01:38:34.214Z,45.46
2019-05-12T01:39:39.510Z,46.06
2019-05-12T01:40:44.963Z,46.32
2019-05-12T01:41:50.330Z,46.26
2019-05-12T01:42:58.172Z,46.34
2019-05-12T01:44:03.170Z,46.08
2019-05-12T01:45:09.209Z,45.98
2019-05-12T01:46:14.718Z,46.17
2019-05-12T01:47:19.635Z,46.09
2019-05-12T01:48:24.608Z,47.04
2019-05-12T01:49:30.016Z,46.79
2019-05-12T01:50:34.974Z,46.92
2019-05-12T01:51:39.842Z,46.35
2019-05-12T01:52:45.023Z,46.32
2019-05-12T01:53:49.956Z,46.85
2019-05-12T01:54:55.035Z,46.88
2019-05-12T01:56:00.437Z,46.98
2019-05-12T01:57:05.153Z,46.58
2019-05-12T01:58:10.325Z,46.67
2019-05-12T01:59:15.262Z,47.01
2019-05-12T02:00:20.360Z,47.75
2019-05-12T02:01:25.078Z,46.97
2019-05-12T02:02:29.755Z,47.14
2019-05-12T02:03:34.727Z,46.91
2019-05-12T02:04:58.808Z,46.75
2019-05-12T02:06:03.997Z,46.09
2019-05-12T02:07:09.143Z,47.03
2019-05-12T02:08:19.656Z,46.96
2019-05-12T02:09:27.993Z,46.90
2019-05-12T02:10:33.105Z,47.18
2019-05-12T02:11:38.590Z,46.90
2019-05-12T02:12:43.536Z,47.47
2019-05-12T02:13:49.265Z,47.19
2019-05-12T02:14:54.562Z,47.12
2019-05-12T02:15:59.746Z,47.27
2019-05-12T02:17:04.482Z,47.57
2019-05-12T02:18:09.414Z,47.29
2019-05-12T02:19:14.655Z,47.48
2019-05-12T02:20:22.131Z,47.24
2019-05-12T02:21:27.981Z,47.15
2019-05-12T02:22:32.988Z,47.28
2019-05-12T02:23:38.681Z,47.15
2019-05-12T02:24:44.058Z,47.63
2019-05-12T02:25:49.143Z,47.55
2019-05-12T02:26:54.646Z,47.35
2019-05-12T02:27:59.588Z,47.00
2019-05-12T02:29:04.817Z,47.27
2019-05-12T02:30:10.642Z,47.50
2019-05-12T02:31:15.944Z,47.54
2019-05-12T02:32:23.774Z,47.57
2019-05-12T02:33:28.189Z,47.62
2019-05-12T02:34:34.953Z,47.68
2019-05-12T02:35:40.022Z,47.56
2019-05-12T02:36:45.325Z,47.39
2019-05-12T02:37:50.931Z,47.56
2019-05-12T02:38:56.293Z,47.61
2019-05-12T02:40:04.516Z,47.50
2019-05-12T02:41:08.338Z,47.39
2019-05-12T02:42:15.604Z,47.05
2019-05-12T02:43:19.465Z,47.41
2019-05-12T02:44:24.959Z,47.52
2019-05-12T02:45:29.485Z,47.82
2019-05-12T02:46:35.081Z,47.54
2019-05-12T02:47:40.085Z,47.93
2019-05-12T02:48:45.280Z,48.11
2019-05-12T02:49:49.736Z,47.86
2019-05-12T02:50:55.245Z,47.54
2019-05-12T02:52:00.868Z,47.55
2019-05-12T02:53:05.995Z,47.24
2019-05-12T02:54:14.259Z,47.86
2019-05-12T02:55:17.867Z,47.87
2019-05-12T02:56:25.686Z,47.68
2019-05-12T02:57:34.418Z,48.01
2019-05-12T02:58:40.107Z,47.95
2019-05-12T02:59:47.846Z,47.79
2019-05-12T03:00:54.788Z,47.71
2019-05-12T03:02:01.407Z,47.83
2019-05-12T03:03:08.790Z,47.91
2019-05-12T03:04:16.056Z,47.64
2019-05-12T03:05:21.014Z,47.92
2019-05-12T03:06:28.899Z,47.66
2019-05-12T03:07:35.264Z,48.01
2019-05-12T03:08:40.161Z,48.06
2019-05-12T03:09:47.476Z,48.03
2019-05-12T03:10:55.011Z,48.15
2019-05-12T03:12:05.499Z,47.75
2019-05-12T03:13:08.872Z,47.43
2019-05-12T03:14:15.758Z,47.26
2019-05-12T03:15:20.537Z,47.46
2019-05-12T03:16:25.920Z,47.37
2019-05-12T03:17:31.132Z,47.23
2019-05-12T03:18:36.384Z,46.86
2019-05-12T03:19:41.296Z,46.97
2019-05-12T03:20:46.032Z,47.14
2019-05-12T03:21:54.570Z,48.01
2019-05-12T03:22:57.650Z,47.82
2019-05-12T03:24:05.723Z,48.24
2019-05-12T03:25:20.524Z,48.41
2019-05-12T03:26:16.506Z,48.10
2019-05-12T03:27:21.225Z,47.72
2019-05-12T03:28:26.073Z,47.42
2019-05-12T03:29:34.252Z,47.48
2019-05-12T03:30:40.785Z,47.38
2019-05-12T03:31:48.882Z,47.86
2019-05-12T03:32:58.151Z,48.96
2019-05-12T03:34:00.753Z,48.71
2019-05-12T03:35:08.871Z,48.89
2019-05-12T03:36:17.913Z,48.75
2019-05-12T03:37:19.851Z,49.00
2019-05-12T03:38:27.822Z,49.12
2019-05-12T03:39:34.396Z,48.63
2019-05-12T03:40:39.132Z,49.01
2019-05-12T03:41:44.766Z,49.16
2019-05-12T03:42:50.501Z,49.49
2019-05-12T03:44:00.773Z,50.16
2019-05-12T03:45:06.049Z,50.31
2019-05-12T03:46:11.235Z,49.93
2019-05-12T03:47:16.945Z,49.73
2019-05-12T03:48:25.061Z,49.55
2019-05-12T03:49:30.356Z,48.97
2019-05-12T03:50:35.872Z,48.77
2019-05-12T03:51:45.708Z,48.48
2019-05-12T03:52:51.839Z,48.72
2019-05-12T03:54:05.576Z,49.51
2019-05-12T03:55:30.344Z,49.80
2019-05-12T03:56:34.454Z,50.18
2019-05-12T03:57:47.258Z,50.36
2019-05-12T03:58:54.165Z,50.39
2019-05-12T04:00:04.942Z,50.77
2019-05-12T04:01:10.793Z,50.22
2019-05-12T04:02:17.152Z,50.51
2019-05-12T04:03:24.718Z,51.14
2019-05-12T04:04:30.050Z,51.23
2019-05-12T04:05:35.596Z,51.08
2019-05-12T04:06:40.969Z,50.99
2019-05-12T04:07:45.781Z,51.29
2019-05-12T04:08:54.463Z,51.84
2019-05-12T04:09:58.591Z,50.95
2019-05-12T04:11:05.301Z,50.72
2019-05-12T04:12:10.225Z,50.92
2019-05-12T04:13:15.638Z,51.21
2019-05-12T04:14:20.327Z,51.60
2019-05-12T04:15:25.754Z,51.32
2019-05-12T04:16:30.605Z,51.27
2019-05-12T04:17:36.066Z,51.37
2019-05-12T04:18:44.761Z,50.91
2019-05-12T04:19:48.664Z,50.66
2019-05-12T04:20:54.513Z,51.13
2019-05-12T04:21:59.769Z,51.14
2019-05-12T04:23:06.390Z,51.50
2019-05-12T04:24:14.257Z,51.86
2019-05-12T04:25:18.772Z,50.94
2019-05-12T04:26:25.273Z,50.53
2019-05-12T04:27:34.624Z,50.59
2019-05-12T04:28:38.065Z,51.13
2019-05-12T04:29:44.170Z,50.37
2019-05-12T04:30:49.224Z,50.12
2019-05-12T04:31:54.458Z,50.26
2019-05-12T04:33:00.081Z,50.47
2019-05-12T04:34:05.467Z,50.60
2019-05-12T04:35:10.350Z,50.16
2019-05-12T04:36:15.633Z,50.78
2019-05-12T04:37:20.820Z,50.45
2019-05-12T04:38:26.497Z,50.16
2019-05-12T04:39:34.146Z,49.92
2019-05-12T04:40:38.419Z,49.49
2019-05-12T04:41:45.346Z,50.02
2019-05-12T04:42:50.896Z,49.85
2019-05-12T04:43:56.665Z,50.01
2019-05-12T04:45:04.428Z,49.53
2019-05-12T04:46:09.126Z,49.56
2019-05-12T04:47:14.698Z,49.83
2019-05-12T04:48:21.607Z,50.17
2019-05-12T04:49:26.761Z,50.12
2019-05-12T04:50:35.460Z,49.81
2019-05-12T04:51:39.242Z,50.29
2019-05-12T04:52:44.864Z,49.71
2019-05-12T04:53:49.956Z,49.43
2019-05-12T04:54:56.067Z,49.16
2019-05-12T04:56:10.625Z,49.52
2019-05-12T04:57:08.961Z,48.90
2019-05-12T04:58:15.737Z,49.36
2019-05-12T04:59:21.058Z,48.73
2019-05-12T05:00:29.407Z,48.56
2019-05-12T05:01:36.391Z,48.61
2019-05-12T05:02:45.223Z,47.82
2019-05-12T05:03:49.343Z,48.45
2019-05-12T05:04:54.848Z,48.38
2019-05-12T05:06:00.634Z,48.46
2019-05-12T05:07:05.385Z,48.94
2019-05-12T05:08:13.543Z,48.89
2019-05-12T05:09:17.406Z,48.68
2019-05-12T05:10:24.990Z,48.43
2019-05-12T05:11:29.914Z,48.54
2019-05-12T05:12:35.823Z,48.54
2019-05-12T05:13:40.575Z,47.84
2019-05-12T05:14:46.481Z,48.08
2019-05-12T05:15:51.383Z,47.91
2019-05-12T05:16:57.069Z,48.07
2019-05-12T05:18:06.057Z,47.75
2019-05-12T05:19:09.013Z,47.28
2019-05-12T05:20:14.034Z,47.52
2019-05-12T05:21:19.921Z,47.67
2019-05-12T05:22:24.953Z,47.56
2019-05-12T05:23:30.800Z,47.26
2019-05-12T05:24:35.912Z,47.35
2019-05-12T05:25:43.448Z,47.99
2019-05-12T05:26:48.871Z,47.40
2019-05-12T05:27:54.355Z,47.56
2019-05-12T05:28:59.409Z,47.51
2019-05-12T05:30:04.538Z,47.95
2019-05-12T05:31:09.682Z,47.53
2019-05-12T05:32:15.946Z,47.58
2019-05-12T05:33:20.653Z,48.27
2019-05-12T05:34:26.254Z,48.38
2019-05-12T05:35:35.072Z,48.39
2019-05-12T05:36:38.807Z,48.48
2019-05-12T05:37:44.155Z,47.80
2019-05-12T05:38:51.039Z,47.67
2019-05-12T05:39:56.482Z,48.19
2019-05-12T05:41:05.913Z,47.75
2019-05-12T05:42:09.736Z,48.04
2019-05-12T05:43:18.415Z,48.20
2019-05-12T05:44:29.201Z,47.56
2019-05-12T05:45:35.115Z,47.51
2019-05-12T05:46:44.450Z,47.53
2019-05-12T05:47:49.073Z,47.63
2019-05-12T05:48:54.314Z,47.20
2019-05-12T05:50:00.142Z,46.20
2019-05-12T05:51:08.951Z,45.99
2019-05-12T05:52:13.770Z,46.02
2019-05-12T05:53:19.857Z,46.25
2019-05-12T05:54:31.211Z,46.37
2019-05-12T05:55:34.317Z,46.42
2019-05-12T05:56:43.094Z,45.87
2019-05-12T05:57:45.896Z,45.54
2019-05-12T05:58:54.643Z,45.58
2019-05-12T06:00:06.314Z,45.66
2019-05-12T06:01:09.525Z,45.16
2019-05-12T06:02:16.858Z,45.34
2019-05-12T06:03:27.230Z,45.69
2019-05-12T06:04:30.167Z,45.40
2019-05-12T06:05:38.550Z,45.38
2019-05-12T06:06:50.772Z,45.16
2019-05-12T06:07:59.564Z,45.63
2019-05-12T06:09:09.984Z,45.22
2019-05-12T06:10:17.808Z,45.09
2019-05-12T06:11:28.196Z,45.05
2019-05-12T06:12:29.857Z,44.58
2019-05-12T06:13:35.587Z,42.96
2019-05-12T06:14:46.017Z,41.96
2019-05-12T06:15:47.770Z,39.65
2019-05-12T06:16:53.800Z,41.46
2019-05-12T06:17:59.285Z,42.05
2019-05-12T06:19:04.981Z,42.26
2019-05-12T06:20:10.400Z,40.01
2019-05-12T06:21:16.215Z,39.66
2019-05-12T06:22:20.941Z,41.18
2019-05-12T06:23:29.099Z,41.21
2019-05-12T06:24:34.232Z,41.97
2019-05-12T06:25:49.269Z,39.17
2019-05-12T06:27:00.471Z,38.94
2019-05-12T06:28:07.857Z,38.44
2019-05-12T06:29:20.134Z,38.12
2019-05-12T06:30:18.867Z,35.45
2019-05-12T06:31:28.263Z,31.34
2019-05-12T06:32:33.649Z,33.21
2019-05-12T06:33:39.429Z,34.52
2019-05-12T06:34:50.977Z,36.55
2019-05-12T06:35:57.045Z,37.22
2019-05-12T06:37:12.158Z,36.61
2019-05-12T06:38:10.424Z,37.75
2019-05-12T06:39:20.598Z,37.76
2019-05-12T06:40:24.355Z,38.70
2019-05-12T06:41:33.558Z,39.17
2019-05-12T06:42:38.554Z,39.30
2019-05-12T06:43:45.384Z,40.06
2019-05-12T06:44:55.106Z,40.68
2019-05-12T06:45:57.915Z,40.40
2019-05-12T06:47:08.070Z,41.13
2019-05-12T06:48:10.644Z,40.84
2019-05-12T06:49:17.652Z,39.10
2019-05-12T06:50:23.817Z,36.28
2019-05-12T06:51:28.920Z,37.32
2019-05-12T06:52:38.653Z,38.07
2019-05-12T06:53:44.206Z,37.26
2019-05-12T06:54:51.222Z,35.73
2019-05-12T06:55:56.367Z,36.49
2019-05-12T06:57:18.759Z,37.26
2019-05-12T06:58:08.394Z,36.85
2019-05-12T06:59:14.900Z,32.34
2019-05-12T07:00:22.232Z,30.99
2019-05-12T07:01:40.135Z,31.43
2019-05-12T07:02:52.269Z,31.67
2019-05-12T07:03:53.486Z,32.47
2019-05-12T07:04:59.642Z,33.04
2019-05-12T07:06:09.339Z,32.18
2019-05-12T07:07:14.125Z,31.54
2019-05-12T07:08:26.657Z,31.50
2019-05-12T07:09:28.393Z,29.78
2019-05-12T07:10:42.915Z,28.65
2019-05-12T07:11:45.037Z,25.51
2019-05-12T07:12:58.852Z,22.82
2019-05-12T07:14:03.098Z,20.71
2019-05-12T07:15:03.561Z,19.97
2019-05-12T07:16:19.705Z,24.37
2019-05-12T07:17:35.660Z,24.64
2019-05-12T07:18:38.445Z,20.08
2019-05-12T07:19:44.039Z,18.92
2019-05-12T07:20:48.935Z,17.90
2019-05-12T07:21:58.256Z,17.47
2019-05-12T07:23:03.533Z,20.69
2019-05-12T07:24:11.044Z,23.65
2019-05-12T07:25:15.060Z,25.33
2019-05-12T07:26:23.293Z,22.10
2019-05-12T07:27:36.576Z,18.89
2019-05-12T07:28:40.160Z,17.72
2019-05-12T07:29:43.592Z,17.23
2019-05-12T07:30:50.030Z,16.52
2019-05-12T07:31:55.476Z,17.53
2019-05-12T07:33:01.520Z,16.53
2019-05-12T07:34:08.396Z,15.89
2019-05-12T07:35:14.769Z,15.92
2019-05-12T07:36:21.147Z,16.24
2019-05-12T07:37:30.094Z,17.48
2019-05-12T07:38:35.007Z,19.49
2019-05-12T07:39:47.645Z,22.09
2019-05-12T07:40:47.533Z,23.58
2019-05-12T07:41:55.097Z,22.85
2019-05-12T07:43:03.778Z,20.73
2019-05-12T07:44:08.955Z,22.75
2019-05-12T07:45:20.680Z,19.04
2019-05-12T07:46:21.151Z,17.16
2019-05-12T07:47:29.282Z,15.42
2019-05-12T07:48:33.546Z,15.67
2019-05-12T07:49:38.774Z,14.47
2019-05-12T07:50:44.354Z,14.62
2019-05-12T07:51:54.212Z,17.20
2019-05-12T07:52:59.632Z,18.71
2019-05-12T07:54:04.803Z,20.62
2019-05-12T07:55:10.387Z,22.60
2019-05-12T07:56:19.648Z,23.43
2019-05-12T07:57:24.187Z,24.88
2019-05-12T07:58:29.620Z,25.75
2019-05-12T07:59:40.870Z,27.49
2019-05-12T08:00:44.203Z,28.28
2019-05-12T08:01:54.404Z,29.61
2019-05-12T08:02:58.912Z,30.59
2019-05-12T08:04:04.687Z,30.92
2019-05-12T08:05:11.105Z,30.83
2019-05-12T08:06:17.724Z,31.30
2019-05-12T08:07:25.920Z,31.70
2019-05-12T08:08:29.707Z,31.95
2019-05-12T08:09:36.401Z,32.34
2019-05-12T08:10:44.160Z,32.56
2019-05-12T08:11:47.952Z,33.20
2019-05-12T08:12:59.349Z,33.34
2019-05-12T08:14:00.714Z,32.75
2019-05-12T08:15:09.654Z,32.25
2019-05-12T08:16:14.226Z,30.57
2019-05-12T08:17:20.015Z,30.57
2019-05-12T08:18:24.823Z,30.79
2019-05-12T08:19:30.481Z,30.27
2019-05-12T08:20:34.985Z,30.29
2019-05-12T08:21:43.760Z,29.87
2019-05-12T08:22:47.672Z,29.61
2019-05-12T08:23:53.675Z,29.26
2019-05-12T08:24:59.023Z,28.16
2019-05-12T08:26:12.545Z,24.22
2019-05-12T08:27:11.043Z,24.25
2019-05-12T08:28:19.310Z,22.59
2019-05-12T08:29:24.597Z,18.21
2019-05-12T08:30:34.727Z,19.42
2019-05-12T08:31:40.774Z,19.01
2019-05-12T08:32:46.792Z,15.96
2019-05-12T08:33:53.777Z,17.92
2019-05-12T08:34:58.620Z,19.34
2019-05-12T08:36:11.248Z,19.70
2019-05-12T08:37:10.735Z,20.79
2019-05-12T08:38:15.454Z,23.11
2019-05-12T08:39:23.059Z,21.01
2019-05-12T08:40:27.204Z,20.49
2019-05-12T08:41:34.157Z,18.48
2019-05-12T08:42:39.761Z,16.86
2019-05-12T08:43:47.073Z,16.58
2019-05-12T08:44:54.102Z,14.83
2019-05-12T08:46:09.932Z,13.37
2019-05-12T08:47:29.052Z,12.67
2019-05-12T08:48:34.313Z,12.68
2019-05-12T08:49:50.222Z,11.94
2019-05-12T08:50:48.293Z,11.72
2019-05-12T08:51:57.793Z,12.33
2019-05-12T08:53:04.447Z,11.21
2019-05-12T08:54:08.541Z,11.90
2019-05-12T08:55:16.837Z,13.99
2019-05-12T08:56:23.978Z,13.05
2019-05-12T08:57:34.903Z,12.08
2019-05-12T08:58:47.456Z,11.86
2019-05-12T08:59:44.127Z,10.86
2019-05-12T09:00:50.470Z,10.54
2019-05-12T09:02:00.552Z,9.86
2019-05-12T09:03:03.586Z,9.59
2019-05-12T09:04:14.662Z,9.80
2019-05-12T09:05:15.804Z,9.82
2019-05-12T09:06:23.710Z,9.34
2019-05-12T09:07:30.286Z,8.64
2019-05-12T09:08:43.859Z,9.15
2019-05-12T09:09:43.957Z,9.04
2019-05-12T09:10:52.234Z,9.28
2019-05-12T09:11:56.608Z,9.56
2019-05-12T09:13:04.095Z,10.03
2019-05-12T09:14:09.047Z,9.62
2019-05-12T09:15:15.193Z,9.00
2019-05-12T09:16:19.918Z,9.48
2019-05-12T09:17:25.421Z,9.21
2019-05-12T09:18:35.242Z,9.09
2019-05-12T09:19:38.051Z,8.83
2019-05-12T09:20:48.736Z,9.58
2019-05-12T09:21:50.382Z,12.06
2019-05-12T09:23:00.522Z,10.33
2019-05-12T09:24:04.256Z,9.29
2019-05-12T09:25:08.968Z,9.28
2019-05-12T09:26:18.588Z,9.68
2019-05-12T09:27:21.024Z,9.70
2019-05-12T09:28:26.635Z,10.51
2019-05-12T09:29:31.659Z,9.48
2019-05-12T09:30:39.971Z,11.93
2019-05-12T09:31:44.115Z,14.33
2019-05-12T09:32:50.403Z,14.79
2019-05-12T09:33:55.929Z,16.14
2019-05-12T09:35:03.807Z,18.03
2019-05-12T09:36:11.274Z,16.27
2019-05-12T09:37:16.323Z,13.72
2019-05-12T09:38:23.232Z,15.66
2019-05-12T09:39:34.064Z,17.95
2019-05-12T09:40:35.988Z,19.67
2019-05-12T09:41:48.163Z,19.89
2019-05-12T09:42:48.973Z,19.81
2019-05-12T09:43:54.583Z,15.54
2019-05-12T09:45:00.010Z,15.28
2019-05-12T09:46:06.334Z,16.78
2019-05-12T09:47:21.929Z,13.80
2019-05-12T09:48:18.626Z,12.00
2019-05-12T09:49:31.211Z,10.39
2019-05-12T09:50:30.380Z,10.94
2019-05-12T09:51:41.170Z,10.61
2019-05-12T09:52:44.085Z,10.65
2019-05-12T09:53:51.472Z,10.16
2019-05-12T09:54:56.713Z,11.12
2019-05-12T09:56:01.455Z,10.43
2019-05-12T09:57:06.712Z,9.45
2019-05-12T09:58:13.996Z,9.02
2019-05-12T09:59:22.997Z,8.95
2019-05-12T10:00:30.266Z,9.10
2019-05-12T10:01:35.327Z,8.99
2019-05-12T10:02:39.538Z,8.73
2019-05-12T10:03:45.155Z,8.24
2019-05-12T10:04:50.376Z,8.02
2019-05-12T10:05:57.197Z,8.25
2019-05-12T10:07:03.838Z,7.80
2019-05-12T10:08:09.176Z,7.95
2019-05-12T10:09:15.440Z,8.23
2019-05-12T10:10:20.983Z,8.57
2019-05-12T10:11:25.941Z,8.18
2019-05-12T10:12:38.774Z,8.30
2019-05-12T10:13:38.689Z,8.01
2019-05-12T10:14:45.832Z,7.54
2019-05-12T10:15:51.043Z,8.31
2019-05-12T10:16:56.396Z,8.39
2019-05-12T10:18:06.407Z,8.82
2019-05-12T10:19:08.405Z,8.52
2019-05-12T10:20:13.844Z,8.15
2019-05-12T10:21:19.720Z,8.40
2019-05-12T10:22:29.980Z,8.02
2019-05-12T10:23:36.390Z,8.10
2019-05-12T10:24:54.932Z,8.70
2019-05-12T10:25:48.885Z,8.26
2019-05-12T10:26:54.218Z,7.50
2019-05-12T10:28:05.282Z,7.63
2019-05-12T10:29:16.864Z,7.60
2019-05-12T10:30:17.297Z,7.90
2019-05-12T10:31:21.028Z,8.25
2019-05-12T10:32:27.116Z,7.85
2019-05-12T10:33:33.786Z,8.04
2019-05-12T10:34:40.404Z,7.37
2019-05-12T10:35:44.978Z,8.29
2019-05-12T10:36:50.877Z,7.90
2019-05-12T10:38:00.133Z,8.01
2019-05-12T10:39:04.297Z,7.56
2019-05-12T10:40:09.580Z,7.54
2019-05-12T10:41:15.103Z,7.53
2019-05-12T10:42:20.092Z,8.40
2019-05-12T10:43:25.359Z,12.05
2019-05-12T10:44:37.663Z,12.68
2019-05-12T10:45:37.790Z,10.14
2019-05-12T10:46:42.677Z,9.90
2019-05-12T10:47:47.984Z,9.72
2019-05-12T10:48:53.943Z,9.17
2019-05-12T10:49:59.113Z,12.06
2019-05-12T10:51:04.115Z,13.31
2019-05-12T10:52:09.702Z,15.00
2019-05-12T10:53:15.792Z,15.22
2019-05-12T10:54:24.175Z,11.57
2019-05-12T10:55:28.521Z,14.52
2019-05-12T10:56:34.810Z,16.60
2019-05-12T10:57:39.614Z,17.31
2019-05-12T10:58:45.467Z,13.80
2019-05-12T10:59:50.779Z,12.13
2019-05-12T11:00:58.817Z,12.84
2019-05-12T11:02:03.554Z,14.99
2019-05-12T11:03:12.202Z,16.06
2019-05-12T11:04:15.788Z,17.09
2019-05-12T11:05:23.307Z,14.25
2019-05-12T11:06:27.819Z,16.18
2019-05-12T11:07:34.075Z,17.10
2019-05-12T11:08:41.273Z,13.46
2019-05-12T11:09:45.983Z,13.26
2019-05-12T11:10:57.573Z,11.58
2019-05-12T11:11:58.661Z,10.44
2019-05-12T11:13:08.213Z,10.49
2019-05-12T11:14:10.453Z,10.03
2019-05-12T11:15:15.705Z,12.40
2019-05-12T11:16:22.845Z,15.17
2019-05-12T11:17:33.913Z,14.20
2019-05-12T11:18:39.710Z,11.70
2019-05-12T11:19:47.299Z,12.73
2019-05-12T11:20:54.420Z,12.55
2019-05-12T11:21:59.503Z,11.21
2019-05-12T11:23:05.035Z,13.29
2019-05-12T11:24:10.009Z,14.79
2019-05-12T11:25:15.549Z,12.31
2019-05-12T11:26:20.629Z,11.68
2019-05-12T11:27:25.901Z,10.63
2019-05-12T11:28:30.573Z,10.39
2019-05-12T11:29:45.801Z,9.86
2019-05-12T11:30:43.714Z,9.22
2019-05-12T11:31:49.127Z,9.68
2019-05-12T11:32:54.261Z,9.22
2019-05-12T11:34:00.580Z,8.26
2019-05-12T11:35:05.475Z,8.13
2019-05-12T11:36:10.694Z,8.58
2019-05-12T11:37:15.984Z,8.65
2019-05-12T11:38:21.250Z,12.66
2019-05-12T11:39:30.583Z,15.52
2019-05-12T11:40:34.649Z,16.64
2019-05-12T11:41:39.454Z,13.49
2019-05-12T11:42:46.768Z,11.64
2019-05-12T11:43:51.589Z,10.42
2019-05-12T11:44:56.698Z,10.17
2019-05-12T11:46:01.952Z,9.53
2019-05-12T11:47:07.517Z,12.07
2019-05-12T11:48:14.302Z,10.76
2019-05-12T11:49:21.655Z,10.24
2019-05-12T11:50:26.055Z,9.50
2019-05-12T11:51:31.578Z,10.13
2019-05-12T11:52:36.278Z,8.98
2019-05-12T11:53:44.375Z,9.04
2019-05-12T11:54:51.257Z,9.75
2019-05-12T11:56:02.207Z,13.00
2019-05-12T11:57:04.455Z,14.04
2019-05-12T11:58:11.714Z,14.83
2019-05-12T11:59:16.569Z,16.01
2019-05-12T12:00:24.217Z,17.21
2019-05-12T12:01:29.568Z,18.10
2019-05-12T12:02:35.186Z,19.16
2019-05-12T12:03:40.142Z,19.28
2019-05-12T12:04:48.756Z,15.48
2019-05-12T12:05:53.997Z,13.59
2019-05-12T12:06:59.903Z,13.10
2019-05-12T12:08:04.746Z,11.59
2019-05-12T12:09:15.474Z,11.86
2019-05-12T12:10:16.837Z,14.05
2019-05-12T12:11:27.640Z,15.59
2019-05-12T12:12:28.668Z,16.89
2019-05-12T12:13:34.280Z,18.52
2019-05-12T12:14:45.027Z,19.15
2019-05-12T12:15:46.484Z,19.56
2019-05-12T12:16:54.287Z,19.56
2019-05-12T12:18:04.038Z,20.07
2019-05-12T12:19:06.678Z,20.19
2019-05-12T12:20:22.057Z,20.20
2019-05-12T12:21:23.559Z,20.62
2019-05-12T12:22:29.805Z,20.86
2019-05-12T12:23:35.390Z,20.82
2019-05-12T12:24:43.521Z,21.66
2019-05-12T12:25:48.779Z,21.96
2019-05-12T12:26:55.370Z,22.50
2019-05-12T12:27:59.830Z,21.98
2019-05-12T12:29:05.502Z,22.43
2019-05-12T12:30:18.543Z,22.22
2019-05-12T12:31:17.787Z,22.27
2019-05-12T12:32:23.356Z,21.81
2019-05-12T12:33:31.170Z,20.95
2019-05-12T12:34:35.793Z,20.95
2019-05-12T12:35:41.671Z,20.87
2019-05-12T12:36:46.700Z,21.09
2019-05-12T12:37:55.308Z,21.19
2019-05-12T12:39:00.005Z,21.52
2019-05-12T12:40:05.561Z,20.73
2019-05-12T12:41:10.565Z,21.46
2019-05-12T12:42:16.782Z,21.78
2019-05-12T12:43:21.802Z,22.72
2019-05-12T12:44:27.599Z,23.24
2019-05-12T12:45:43.844Z,22.89
2019-05-12T12:46:51.280Z,23.46
2019-05-12T12:47:56.313Z,23.23
2019-05-12T12:49:08.584Z,22.69
2019-05-12T12:50:08.041Z,22.11
2019-05-12T12:51:17.333Z,22.70
2019-05-12T12:52:20.515Z,23.01
2019-05-12T12:53:27.682Z,23.08
2019-05-12T12:54:33.313Z,23.26
2019-05-12T12:55:43.397Z,22.80
2019-05-12T12:56:45.185Z,22.71
2019-05-12T12:57:54.268Z,22.31
2019-05-12T12:59:01.897Z,22.86
2019-05-12T13:00:06.830Z,22.20
2019-05-12T13:01:15.780Z,22.69
2019-05-12T13:02:18.516Z,23.28
2019-05-12T13:03:27.764Z,22.69
2019-05-12T13:04:30.617Z,22.92
2019-05-12T13:05:36.261Z,22.90
2019-05-12T13:06:43.733Z,22.93
2019-05-12T13:07:48.563Z,22.26
2019-05-12T13:08:54.276Z,22.30
2019-05-12T13:10:04.557Z,21.43
2019-05-12T13:11:06.259Z,21.19
2019-05-12T13:12:15.842Z,23.29
2019-05-12T13:13:18.508Z,22.69
2019-05-12T13:14:28.608Z,22.79
2019-05-12T13:15:30.892Z,22.05
2019-05-12T13:16:36.594Z,22.22
2019-05-12T13:17:44.546Z,21.81
2019-05-12T13:18:48.219Z,22.41
2019-05-12T13:19:56.840Z,21.76
2019-05-12T13:21:00.391Z,22.00
2019-05-12T13:22:08.869Z,22.21
2019-05-12T13:23:14.203Z,22.40
2019-05-12T13:24:19.840Z,22.46
2019-05-12T13:25:24.842Z,23.20
2019-05-12T13:26:30.504Z,22.35
2019-05-12T13:27:36.898Z,22.22
2019-05-12T13:28:45.460Z,22.91
2019-05-12T13:29:48.830Z,23.55
2019-05-12T13:31:07.330Z,24.43
2019-05-12T13:32:00.616Z,24.15
2019-05-12T13:33:08.875Z,23.76
2019-05-12T13:34:14.357Z,23.92
2019-05-12T13:35:20.502Z,22.71
2019-05-12T13:36:29.501Z,23.10
2019-05-12T13:37:33.800Z,23.92
2019-05-12T13:38:40.619Z,22.70
2019-05-12T13:39:55.356Z,23.03
2019-05-12T13:40:54.024Z,23.27
2019-05-12T13:42:00.400Z,22.69
2019-05-12T13:43:09.270Z,22.98
2019-05-12T13:44:13.687Z,22.95
2019-05-12T13:45:19.111Z,22.98
2019-05-12T13:46:24.748Z,22.81
2019-05-12T13:47:35.327Z,22.86
2019-05-12T13:48:36.633Z,22.20
2019-05-12T13:49:45.320Z,22.18
2019-05-12T13:50:49.805Z,22.99
2019-05-12T13:51:55.131Z,22.88
2019-05-12T13:53:05.788Z,22.95
2019-05-12T13:54:07.448Z,23.21
2019-05-12T13:55:13.507Z,22.06
2019-05-12T13:56:24.139Z,22.49
2019-05-12T13:57:25.981Z,22.60
2019-05-12T13:58:34.555Z,22.45
2019-05-12T13:59:38.249Z,22.57
2019-05-12T14:00:50.746Z,22.99
2019-05-12T14:01:50.490Z,23.34
2019-05-12T14:03:03.436Z,22.68
2019-05-12T14:04:04.007Z,22.13
2019-05-12T14:05:11.426Z,21.67
2019-05-12T14:06:15.986Z,22.45
2019-05-12T14:07:21.067Z,22.24
2019-05-12T14:08:26.903Z,21.73
2019-05-12T14:09:31.598Z,22.09
2019-05-12T14:10:37.777Z,22.42
2019-05-12T14:11:44.241Z,22.52
2019-05-12T14:12:49.575Z,22.86
2019-05-12T14:13:54.611Z,22.79
2019-05-12T14:15:00.152Z,22.93
2019-05-12T14:16:06.689Z,22.82
2019-05-12T14:17:14.654Z,23.15